createdAt,value
2018-04-10T00:02:01.415Z,9.19
2018-04-10T00:04:28.117Z,9.28
2018-04-10T00:06:54.761Z,9.22
2018-04-10T00:09:22.595Z,9.26
2018-04-10T00:11:49.198Z,9.09
2018-04-10T00:14:15.882Z,9.48
2018-04-10T00:16:42.553Z,9.34
2018-04-10T00:19:09.347Z,9.41
2018-04-10T00:21:36.038Z,9.10
2018-04-10T00:24:02.711Z,8.94
2018-04-10T00:26:29.335Z,9.25
2018-04-10T00:29:00.031Z,9.25
2018-04-10T00:31:26.664Z,8.94
2018-04-10T00:33:53.162Z,9.26
2018-04-10T00:36:19.839Z,9.55
2018-04-10T00:38:49.851Z,9.16
2018-04-10T00:41:16.496Z,9.14
2018-04-10T00:43:43.231Z,9.34
2018-04-10T00:46:09.975Z,8.98
2018-04-10T00:48:42.914Z,8.79
2018-04-10T00:51:09.671Z,7.98
2018-04-10T00:53:36.218Z,7.76
2018-04-10T00:56:02.754Z,7.84
2018-04-10T00:58:29.436Z,7.52
2018-04-10T01:00:56.033Z,7.75
2018-04-10T01:03:22.760Z,8.23
2018-04-10T01:05:49.412Z,8.38
2018-04-10T01:08:16.172Z,8.50
2018-04-10T01:10:42.834Z,8.43
2018-04-10T01:13:09.559Z,8.19
2018-04-10T01:15:36.066Z,8.28
2018-04-10T01:18:02.710Z,8.42
2018-04-10T01:20:29.320Z,8.55
2018-04-10T01:22:55.980Z,8.61
2018-04-10T01:25:22.638Z,8.76
2018-04-10T01:27:49.286Z,8.93
2018-04-10T01:30:15.891Z,8.85
2018-04-10T01:32:42.407Z,9.02
2018-04-10T01:35:09.533Z,8.55
2018-04-10T01:37:36.176Z,8.63
2018-04-10T01:40:02.846Z,9.01
2018-04-10T01:42:29.547Z,8.92
2018-04-10T01:44:56.307Z,8.54
2018-04-10T01:47:23.055Z,8.70
2018-04-10T01:50:01.408Z,8.72
2018-04-10T01:52:28.296Z,8.49
2018-04-10T01:54:55.034Z,8.51
2018-04-10T01:57:21.800Z,8.88
2018-04-10T01:59:51.623Z,8.70
2018-04-10T02:02:18.366Z,8.95
2018-04-10T02:04:45.035Z,8.94
2018-04-10T02:07:11.675Z,8.98
2018-04-10T02:09:44.454Z,9.11
2018-04-10T02:12:11.191Z,9.16
2018-04-10T02:14:37.943Z,9.21
2018-04-10T02:17:04.692Z,8.98
2018-04-10T02:19:32.367Z,8.89
2018-04-10T02:21:59.014Z,9.16
2018-04-10T02:24:25.713Z,9.32
2018-04-10T02:26:52.470Z,9.61
2018-04-10T02:29:27.131Z,9.35
2018-04-10T02:31:53.819Z,9.45
2018-04-10T02:34:20.291Z,9.76
2018-04-10T02:36:46.871Z,10.16
2018-04-10T02:39:14.711Z,9.82
2018-04-10T02:41:41.432Z,9.34
2018-04-10T02:44:08.153Z,9.11
2018-04-10T02:46:34.727Z,9.25
2018-04-10T02:49:02.598Z,9.25
2018-04-10T02:51:29.284Z,9.27
2018-04-10T02:53:55.960Z,9.12
2018-04-10T02:56:22.599Z,9.03
2018-04-10T02:58:50.422Z,8.69
2018-04-10T03:01:17.151Z,8.97
2018-04-10T03:03:43.914Z,8.71
2018-04-10T03:06:10.587Z,9.09
2018-04-10T03:08:41.272Z,8.80
2018-04-10T03:11:07.915Z,8.73
2018-04-10T03:13:34.598Z,8.54
2018-04-10T03:16:01.122Z,8.28
2018-04-10T03:18:31.136Z,7.90
2018-04-10T03:20:57.662Z,7.75
2018-04-10T03:23:24.263Z,7.89
2018-04-10T03:25:50.843Z,8.30
2018-04-10T03:28:19.406Z,8.06
2018-04-10T03:30:45.873Z,8.25
2018-04-10T03:33:12.443Z,8.34
2018-04-10T03:35:39.011Z,7.70
2018-04-10T03:38:08.583Z,7.76
2018-04-10T03:40:35.422Z,7.41
2018-04-10T03:43:01.983Z,7.76
2018-04-10T03:45:28.511Z,7.84
2018-04-10T03:47:55.226Z,7.68
2018-04-10T03:50:21.812Z,8.36
2018-04-10T03:52:48.416Z,8.50
2018-04-10T03:55:15.044Z,8.53
2018-04-10T03:57:41.707Z,8.28
2018-04-10T04:00:09.440Z,8.62
2018-04-10T04:02:36.045Z,8.89
2018-04-10T04:05:02.559Z,8.26
2018-04-10T04:07:29.225Z,8.82
2018-04-10T04:09:57.080Z,8.77
2018-04-10T04:12:23.880Z,8.69
2018-04-10T04:14:50.510Z,8.83
2018-04-10T04:17:29.094Z,8.27
2018-04-10T04:22:50.490Z,9.32
2018-04-10T04:25:17.227Z,9.47
2018-04-10T04:27:43.872Z,9.42
2018-04-10T04:30:10.763Z,8.72
2018-04-10T04:32:37.468Z,11.37
2018-04-10T04:35:04.127Z,11.48
2018-04-10T04:37:30.639Z,13.16
2018-04-10T04:40:04.659Z,13.25
2018-04-10T04:42:31.391Z,10.36
2018-04-10T04:44:58.119Z,9.50
2018-04-10T04:47:24.767Z,9.19
2018-04-10T04:49:51.435Z,8.93
2018-04-10T04:52:18.135Z,8.28
2018-04-10T04:54:44.889Z,7.81
2018-04-10T04:57:11.756Z,7.79
2018-04-10T04:59:38.717Z,8.64
2018-04-10T05:02:05.288Z,8.64
2018-04-10T05:04:32.084Z,8.37
2018-04-10T05:06:58.877Z,8.82
2018-04-10T05:09:25.808Z,8.95
2018-04-10T05:11:52.410Z,9.07
2018-04-10T05:14:19.151Z,9.23
2018-04-10T05:16:45.809Z,8.98
2018-04-10T05:19:18.872Z,8.88
2018-04-10T05:21:45.637Z,9.05
2018-04-10T05:24:12.360Z,8.77
2018-04-10T05:26:39.118Z,8.53
2018-04-10T05:29:11.405Z,8.27
2018-04-10T05:31:38.072Z,8.78
2018-04-10T05:34:05.020Z,9.03
2018-04-10T05:36:31.707Z,9.65
2018-04-10T05:39:02.083Z,9.67
2018-04-10T05:41:28.706Z,9.74
2018-04-10T05:43:55.373Z,9.22
2018-04-10T05:46:22.430Z,9.57
2018-04-10T05:48:50.120Z,9.36
2018-04-10T05:51:16.867Z,9.78
2018-04-10T05:53:43.507Z,9.85
2018-04-10T05:56:10.264Z,9.88
2018-04-10T05:58:48.422Z,9.92
2018-04-10T06:01:15.147Z,10.55
2018-04-10T06:03:41.851Z,9.83
2018-04-10T06:06:08.558Z,10.95
2018-04-10T06:08:38.783Z,10.45
2018-04-10T06:11:05.424Z,10.18
2018-04-10T06:13:32.097Z,10.07
2018-04-10T06:15:58.845Z,9.99
2018-04-10T06:18:32.936Z,10.24
2018-04-10T06:20:59.751Z,9.69
2018-04-10T06:23:26.393Z,10.49
2018-04-10T06:25:53.067Z,10.17
2018-04-10T06:28:25.363Z,10.82
2018-04-10T06:30:52.139Z,10.20
2018-04-10T06:33:18.863Z,10.55
2018-04-10T06:35:45.516Z,10.00
2018-04-10T06:38:17.032Z,10.34
2018-04-10T06:40:43.909Z,10.16
2018-04-10T06:43:10.587Z,9.97
2018-04-10T06:45:37.142Z,10.68
2018-04-10T06:48:07.590Z,10.39
2018-04-10T06:50:34.271Z,9.59
2018-04-10T06:53:01.153Z,9.89
2018-04-10T06:55:27.750Z,9.13
2018-04-10T06:58:00.463Z,9.60
2018-04-10T07:00:27.036Z,9.55
2018-04-10T07:02:53.663Z,11.44
2018-04-10T07:05:20.328Z,11.65
2018-04-10T07:07:48.017Z,10.21
2018-04-10T07:10:14.698Z,9.81
2018-04-10T07:12:41.371Z,10.80
2018-04-10T07:15:08.083Z,10.74
2018-04-10T07:17:39.162Z,10.51
2018-04-10T07:20:05.695Z,10.59
2018-04-10T07:22:32.367Z,10.12
2018-04-10T07:24:59.126Z,9.49
2018-04-10T07:27:25.798Z,8.66
2018-04-10T07:29:52.520Z,8.42
2018-04-10T07:32:19.202Z,9.37
2018-04-10T07:34:45.972Z,12.16
2018-04-10T07:37:12.606Z,10.06
2018-04-10T07:39:45.717Z,10.13
2018-04-10T07:42:12.449Z,9.44
2018-04-10T07:44:39.056Z,10.66
2018-04-10T07:47:05.707Z,9.55
2018-04-10T07:49:33.435Z,11.32
2018-04-10T07:52:00.074Z,11.48
2018-04-10T07:54:26.719Z,13.22
2018-04-10T07:56:53.431Z,11.77
2018-04-10T07:59:23.321Z,11.18
2018-04-10T08:01:49.953Z,11.06
2018-04-10T08:04:16.605Z,11.84
2018-04-10T08:06:43.128Z,12.77
2018-04-10T08:09:13.512Z,12.42
2018-04-10T08:11:40.131Z,11.20
2018-04-10T08:14:06.865Z,12.26
2018-04-10T08:16:33.600Z,12.19
2018-04-10T08:19:01.282Z,12.25
2018-04-10T08:21:27.995Z,14.23
2018-04-10T08:23:54.763Z,12.39
2018-04-10T08:26:21.463Z,12.89
2018-04-10T08:28:53.100Z,11.93
2018-04-10T08:31:19.779Z,12.88
2018-04-10T08:33:46.492Z,12.05
2018-04-10T08:36:13.052Z,11.82
2018-04-10T08:38:47.236Z,11.65
2018-04-10T08:41:13.984Z,12.50
2018-04-10T08:43:40.642Z,12.58
2018-04-10T08:46:07.573Z,12.29
2018-04-10T08:48:38.019Z,13.43
2018-04-10T08:51:04.521Z,13.03
2018-04-10T08:53:31.226Z,14.18
2018-04-10T08:55:57.953Z,13.29
2018-04-10T08:58:24.891Z,13.34
2018-04-10T09:00:51.640Z,15.23
2018-04-10T09:03:18.311Z,14.02
2018-04-10T09:05:45.015Z,15.61
2018-04-10T09:08:22.804Z,14.62
2018-04-10T09:10:49.382Z,14.38
2018-04-10T09:13:16.103Z,14.63
2018-04-10T09:15:42.872Z,14.12
2018-04-10T09:18:10.677Z,15.51
2018-04-10T09:20:37.343Z,15.59
2018-04-10T09:23:03.968Z,15.86
2018-04-10T09:25:30.459Z,17.07
2018-04-10T09:28:14.274Z,15.70
2018-04-10T09:30:40.997Z,16.87
2018-04-10T09:33:07.730Z,17.54
2018-04-10T09:35:34.423Z,15.69
2018-04-10T09:38:07.232Z,17.99
2018-04-10T09:40:33.756Z,16.38
2018-04-10T09:43:00.484Z,16.66
2018-04-10T09:45:27.115Z,17.91
2018-04-10T09:47:53.671Z,17.72
2018-04-10T09:50:20.375Z,18.54
2018-04-10T09:52:47.088Z,17.38
2018-04-10T09:55:13.965Z,19.08
2018-04-10T09:57:48.408Z,19.05
2018-04-10T10:00:15.105Z,19.63
2018-04-10T10:02:41.844Z,18.18
2018-04-10T10:05:08.542Z,17.67
2018-04-10T10:07:41.635Z,18.64
2018-04-10T10:10:08.351Z,19.41
2018-04-10T10:12:34.934Z,19.68
2018-04-10T10:15:01.950Z,20.04
2018-04-10T10:17:32.202Z,19.92
2018-04-10T10:19:58.845Z,20.50
2018-04-10T10:22:25.557Z,20.13
2018-04-10T10:24:52.319Z,20.32
2018-04-10T10:27:22.559Z,18.54
2018-04-10T10:29:49.222Z,20.57
2018-04-10T10:32:15.907Z,20.86
2018-04-10T10:34:42.551Z,19.65
2018-04-10T10:37:09.195Z,20.39
2018-04-10T10:39:35.776Z,19.46
2018-04-10T10:42:02.674Z,21.48
2018-04-10T10:44:29.410Z,19.71
2018-04-10T10:46:56.336Z,18.65
2018-04-10T10:49:22.915Z,21.07
2018-04-10T10:51:49.639Z,19.75
2018-04-10T10:54:16.618Z,22.48
2018-04-10T10:56:43.261Z,21.51
2018-04-10T10:59:10.181Z,22.21
2018-04-10T11:01:36.767Z,21.80
2018-04-10T11:04:03.532Z,21.18
2018-04-10T11:06:30.196Z,20.27
2018-04-10T11:08:57.024Z,21.37
2018-04-10T11:11:23.599Z,22.72
2018-04-10T11:13:50.175Z,22.16
2018-04-10T11:16:16.958Z,21.34
2018-04-10T11:18:46.867Z,21.48
2018-04-10T11:21:13.701Z,21.07
2018-04-10T11:23:40.420Z,21.86
2018-04-10T11:26:07.076Z,21.98
2018-04-10T11:28:33.696Z,23.37
2018-04-10T11:31:00.303Z,21.80
2018-04-10T11:33:26.955Z,21.26
2018-04-10T11:35:53.611Z,22.27
2018-04-10T11:38:23.459Z,22.22
2018-04-10T11:40:50.159Z,23.00
2018-04-10T11:43:16.931Z,22.88
2018-04-10T11:45:43.759Z,23.75
2018-04-10T11:48:17.909Z,23.69
2018-04-10T11:50:44.460Z,23.23
2018-04-10T11:53:11.244Z,23.51
2018-04-10T11:55:37.788Z,22.09
2018-04-10T11:58:05.632Z,21.99
2018-04-10T12:00:32.372Z,22.33
2018-04-10T12:02:59.140Z,23.90
2018-04-10T12:05:25.812Z,24.30
2018-04-10T12:08:16.641Z,21.80
2018-04-10T12:10:43.450Z,21.60
2018-04-10T12:13:10.089Z,23.14
2018-04-10T12:15:36.663Z,23.71
2018-04-10T12:18:07.987Z,23.84
2018-04-10T12:20:34.588Z,24.78
2018-04-10T12:23:01.311Z,23.40
2018-04-10T12:25:28.007Z,22.98
2018-04-10T12:28:02.108Z,23.34
2018-04-10T12:30:28.721Z,22.46
2018-04-10T12:32:55.450Z,21.93
2018-04-10T12:35:22.047Z,22.12
2018-04-10T12:37:52.263Z,21.14
2018-04-10T12:40:18.895Z,21.61
2018-04-10T12:42:45.636Z,23.62
2018-04-10T12:45:12.275Z,23.57
2018-04-10T12:47:43.075Z,23.48
2018-04-10T12:50:09.734Z,22.88
2018-04-10T12:52:36.477Z,23.49
2018-04-10T12:55:03.058Z,22.10
2018-04-10T12:57:34.485Z,21.97
2018-04-10T13:00:01.896Z,22.42
2018-04-10T13:02:28.575Z,22.02
2018-04-10T13:04:55.182Z,21.86
2018-04-10T13:07:27.777Z,21.51
2018-04-10T13:09:54.470Z,22.07
2018-04-10T13:12:21.092Z,21.79
2018-04-10T13:14:47.843Z,23.13
2018-04-10T13:17:20.724Z,20.65
2018-04-10T13:19:47.459Z,21.76
2018-04-10T13:22:14.193Z,20.28
2018-04-10T13:24:40.888Z,19.27
2018-04-10T13:27:11.128Z,21.37
2018-04-10T13:29:37.922Z,20.86
2018-04-10T13:32:04.626Z,20.21
2018-04-10T13:34:31.273Z,20.70
2018-04-10T13:37:04.483Z,20.33
2018-04-10T13:39:31.220Z,19.17
2018-04-10T13:41:57.816Z,20.12
2018-04-10T13:44:24.482Z,18.61
2018-04-10T13:46:52.407Z,18.60
2018-04-10T13:49:19.782Z,17.70
2018-04-10T13:51:46.442Z,18.65
2018-04-10T13:54:13.127Z,18.57
2018-04-10T13:56:43.107Z,17.88
2018-04-10T13:59:10.236Z,17.59
2018-04-10T14:01:36.959Z,19.71
2018-04-10T14:04:03.752Z,18.70
2018-04-10T14:06:34.060Z,19.87
2018-04-10T14:09:00.679Z,19.03
2018-04-10T14:11:27.371Z,18.54
2018-04-10T14:13:54.024Z,18.34
2018-04-10T14:16:24.289Z,17.51
2018-04-10T14:18:51.015Z,18.19
2018-04-10T14:21:17.707Z,18.56
2018-04-10T14:23:44.367Z,16.80
2018-04-10T14:26:11.020Z,17.97
2018-04-10T14:28:38.112Z,16.32
2018-04-10T14:31:04.803Z,16.62
2018-04-10T14:33:31.639Z,15.81
2018-04-10T14:35:58.362Z,16.66
2018-04-10T14:38:38.403Z,17.23
2018-04-10T14:41:05.080Z,17.67
2018-04-10T14:43:31.671Z,17.23
2018-04-10T14:45:58.391Z,16.66
2018-04-10T14:48:28.211Z,16.96
2018-04-10T14:50:54.910Z,16.49
2018-04-10T14:53:21.484Z,17.73
2018-04-10T14:55:48.224Z,16.75
2018-04-10T14:58:16.193Z,16.80
2018-04-10T15:00:42.929Z,16.36
2018-04-10T15:03:09.628Z,18.21
2018-04-10T15:05:36.209Z,17.55
2018-04-10T15:08:03.957Z,17.68
2018-04-10T15:10:30.479Z,18.32
2018-04-10T15:12:57.199Z,17.78
2018-04-10T15:15:23.963Z,18.59
2018-04-10T15:17:55.541Z,18.70
2018-04-10T15:20:22.263Z,18.58
2018-04-10T15:22:49.062Z,21.34
2018-04-10T15:25:15.738Z,21.36
2018-04-10T15:27:45.541Z,21.03
2018-04-10T15:30:12.191Z,19.32
2018-04-10T15:32:38.907Z,19.02
2018-04-10T15:35:06.354Z,17.30
2018-04-10T15:37:36.713Z,16.63
2018-04-10T15:40:03.284Z,17.10
2018-04-10T15:42:29.895Z,15.35
2018-04-10T15:44:56.509Z,15.64
2018-04-10T15:47:26.919Z,15.97
2018-04-10T15:49:53.567Z,15.39
2018-04-10T15:52:20.247Z,14.64
2018-04-10T15:54:46.971Z,14.99
2018-04-10T15:57:13.842Z,14.37
2018-04-10T15:59:40.539Z,12.86
2018-04-10T16:02:07.175Z,14.14
2018-04-10T16:04:33.851Z,15.53
2018-04-10T16:07:01.672Z,14.53
2018-04-10T16:09:28.414Z,13.05
2018-04-10T16:11:55.084Z,13.38
2018-04-10T16:14:21.916Z,13.20
2018-04-10T16:16:52.525Z,14.10
2018-04-10T16:19:19.115Z,13.44
2018-04-10T16:21:45.691Z,12.44
2018-04-10T16:24:12.280Z,11.52
2018-04-10T16:26:39.870Z,11.41
2018-04-10T16:29:06.367Z,10.79
2018-04-10T16:33:59.541Z,11.01
2018-04-10T16:36:32.335Z,11.19
2018-04-10T16:38:59.144Z,11.01
2018-04-10T16:41:25.891Z,11.14
2018-04-10T16:43:52.420Z,11.34
2018-04-10T16:46:20.227Z,11.09
2018-04-10T16:48:46.955Z,10.77
2018-04-10T16:51:13.692Z,10.55
2018-04-10T16:53:40.938Z,10.74
2018-04-10T16:56:11.283Z,10.10
2018-04-10T16:58:38.228Z,9.79
2018-04-10T17:01:04.910Z,9.80
2018-04-10T17:03:31.588Z,9.97
2018-04-10T17:05:58.464Z,10.16
2018-04-10T17:08:25.214Z,10.29
2018-04-10T17:10:51.969Z,9.83
2018-04-10T17:13:18.712Z,9.69
2018-04-10T17:15:49.063Z,9.55
2018-04-10T17:18:17.749Z,9.70
2018-04-10T17:20:44.468Z,9.34
2018-04-10T17:23:11.148Z,9.08
2018-04-10T17:25:38.764Z,9.89
2018-04-10T17:28:12.756Z,10.15
2018-04-10T17:30:39.494Z,10.58
2018-04-10T17:33:09.615Z,10.41
2018-04-10T17:35:38.481Z,10.49
2018-04-10T17:38:05.187Z,9.90
2018-04-10T17:40:37.268Z,10.31
2018-04-10T17:43:04.012Z,9.92
2018-04-10T17:45:30.767Z,9.66
2018-04-10T17:47:57.561Z,9.56
2018-04-10T17:50:24.420Z,9.52
2018-04-10T17:52:57.233Z,9.19
2018-04-10T17:55:24.170Z,8.99
2018-04-10T17:57:50.892Z,9.52
2018-04-10T18:00:17.599Z,9.51
2018-04-10T18:02:45.320Z,9.45
2018-04-10T18:05:12.368Z,9.53
2018-04-10T18:07:39.025Z,9.34
2018-04-10T18:10:05.719Z,8.76
2018-04-10T18:12:32.591Z,9.16
2018-04-10T18:14:59.339Z,9.43
2018-04-10T18:17:25.994Z,10.14
2018-04-10T18:19:52.664Z,9.39
2018-04-10T18:22:23.298Z,9.81
2018-04-10T18:24:50.999Z,9.82
2018-04-10T18:27:17.665Z,9.13
2018-04-10T18:29:45.136Z,8.77
2018-04-10T18:32:11.735Z,8.68
2018-04-10T18:34:38.475Z,8.63
2018-04-10T18:37:05.120Z,8.53
2018-04-10T18:39:31.911Z,8.29
2018-04-10T18:41:58.672Z,8.18
2018-04-10T18:44:25.674Z,8.12
2018-04-10T18:46:52.416Z,8.09
2018-04-10T18:49:19.616Z,8.15
2018-04-10T18:51:46.385Z,8.63
2018-04-10T18:54:16.960Z,8.98
2018-04-10T18:56:43.485Z,8.76
2018-04-10T18:59:10.240Z,9.01
2018-04-10T19:01:37.065Z,9.40
2018-04-10T19:04:07.057Z,8.46
2018-04-10T19:06:34.635Z,9.28
2018-04-10T19:09:01.224Z,9.87
2018-04-10T19:11:27.909Z,9.24
2018-04-10T19:14:00.736Z,9.48
2018-04-10T19:16:28.020Z,8.87
2018-04-10T19:18:54.753Z,9.24
2018-04-10T19:21:21.424Z,9.28
2018-04-10T19:23:51.917Z,8.84
2018-04-10T19:26:18.715Z,8.63
2018-04-10T19:28:46.200Z,8.70
2018-04-10T19:31:13.629Z,9.54
2018-04-10T19:33:41.680Z,9.63
2018-04-10T19:36:08.407Z,9.31
2018-04-10T19:38:35.184Z,9.34
2018-04-10T19:41:02.778Z,9.66
2018-04-10T19:43:30.543Z,9.55
2018-04-10T19:45:57.168Z,9.89
2018-04-10T19:48:23.880Z,9.96
2018-04-10T19:50:50.469Z,8.90
2018-04-10T19:53:17.367Z,9.16
2018-04-10T19:55:44.043Z,8.72
2018-04-10T19:58:10.582Z,8.55
2018-04-10T20:00:37.207Z,9.11
2018-04-10T20:03:04.048Z,9.19
2018-04-10T20:05:30.583Z,8.96
2018-04-10T20:07:57.239Z,8.96
2018-04-10T20:10:23.981Z,9.51
2018-04-10T20:12:51.903Z,9.46
2018-04-10T20:15:18.877Z,8.80
2018-04-10T20:17:45.607Z,8.35
2018-04-10T20:20:12.314Z,9.22
2018-04-10T20:22:42.340Z,8.81
2018-04-10T20:25:08.940Z,8.92
2018-04-10T20:27:35.616Z,9.03
2018-04-10T20:30:02.364Z,9.47
2018-04-10T20:32:32.667Z,9.44
2018-04-10T20:34:59.929Z,8.97
2018-04-10T20:37:26.820Z,8.98
2018-04-10T20:39:53.436Z,8.73
2018-04-10T20:42:20.283Z,8.78
2018-04-10T20:44:47.000Z,8.69
2018-04-10T20:47:13.676Z,9.22
2018-04-10T20:49:40.424Z,9.49
2018-04-10T20:52:08.349Z,8.85
2018-04-10T20:54:35.002Z,8.26
2018-04-10T20:57:01.730Z,8.70
2018-04-10T20:59:28.478Z,8.89
2018-04-10T21:01:55.143Z,8.86
2018-04-10T21:04:21.782Z,8.76
2018-04-10T21:06:48.355Z,8.64
2018-04-10T21:09:15.025Z,8.82
2018-04-10T21:11:41.838Z,9.11
2018-04-10T21:14:09.565Z,8.92
2018-04-10T21:16:36.164Z,9.05
2018-04-10T21:19:02.767Z,8.92
2018-04-10T21:21:29.868Z,9.05
2018-04-10T21:23:56.503Z,8.88
2018-04-10T21:26:23.201Z,9.16
2018-04-10T21:28:50.303Z,8.52
2018-04-10T21:31:17.042Z,8.73
2018-04-10T21:33:44.894Z,9.04
2018-04-10T21:36:11.535Z,8.91
2018-04-10T21:38:38.126Z,8.64
2018-04-10T21:41:11.048Z,8.61
2018-04-10T21:43:40.857Z,8.94
2018-04-10T21:46:07.520Z,8.90
2018-04-10T21:48:34.243Z,9.17
2018-04-10T21:51:00.875Z,9.50
2018-04-10T21:53:31.056Z,9.10
2018-04-10T21:55:57.683Z,9.00
2018-04-10T21:58:24.411Z,9.46
2018-04-10T22:00:51.048Z,9.54
2018-04-10T22:03:18.038Z,9.58
2018-04-10T22:05:44.751Z,8.78
2018-04-10T22:08:11.334Z,8.88
2018-04-10T22:10:38.003Z,9.10
2018-04-10T22:13:04.965Z,9.03
2018-04-10T22:15:31.547Z,8.79
2018-04-10T22:17:58.191Z,8.63
2018-04-10T22:20:24.767Z,8.99
2018-04-10T22:22:58.597Z,9.02
2018-04-10T22:25:25.340Z,8.65
2018-04-10T22:27:51.994Z,8.85
2018-04-10T22:30:18.645Z,9.07
2018-04-10T22:32:45.276Z,9.16
2018-04-10T22:35:11.779Z,8.93
2018-04-10T22:37:38.526Z,8.45
2018-04-10T22:40:05.097Z,8.85
2018-04-10T22:42:37.985Z,9.18
2018-04-10T22:45:04.584Z,8.52
2018-04-10T22:47:31.235Z,8.93
2018-04-10T22:49:58.227Z,8.96
2018-04-10T22:52:25.025Z,9.36
2018-04-10T22:54:51.768Z,9.30
2018-04-10T22:57:18.504Z,9.09
2018-04-10T22:59:45.150Z,8.80
2018-04-10T23:02:16.034Z,8.45
2018-04-10T23:04:42.878Z,8.38
2018-04-10T23:07:09.603Z,8.63
2018-04-10T23:09:36.347Z,9.21
2018-04-10T23:12:03.129Z,8.52
2018-04-10T23:14:29.803Z,8.82
2018-04-10T23:16:56.564Z,8.80
2018-04-10T23:19:23.340Z,9.06
2018-04-10T23:21:50.189Z,9.15
2018-04-10T23:24:16.855Z,8.63
2018-04-10T23:26:43.550Z,8.83
2018-04-10T23:29:10.207Z,8.77
2018-04-10T23:31:40.818Z,8.65
2018-04-10T23:34:07.457Z,8.13
2018-04-10T23:36:34.279Z,8.65
2018-04-10T23:39:01.000Z,8.66
2018-04-10T23:41:27.688Z,9.07
2018-04-10T23:43:54.361Z,9.15
2018-04-10T23:46:20.904Z,9.17
2018-04-10T23:48:47.584Z,8.98
2018-04-10T23:51:14.181Z,8.96
2018-04-10T23:53:54.922Z,8.86
2018-04-10T23:56:21.510Z,9.02
2018-04-10T23:58:48.137Z,9.04
